sensor_id;sensor_type;location;lat;lon;timestamp;P1;durP1;ratioP1;P2;durP2;ratioP2
11121;SDS011;5615;49.304;10.576;2023-02-01T00:00:00;13.30;;;9.37;;
11121;SDS011;5615;49.304;10.576;2023-02-01T00:02:26;12.23;;;9.70;;
11121;SDS011;5615;49.304;10.576;2023-02-01T00:04:53;11.77;;;10.03;;
11121;SDS011;5615;49.304;10.576;2023-02-01T00:07:19;11.87;;;8.77;;
11121;SDS011;5615;49.304;10.576;2023-02-01T00:09:46;10.97;;;8.00;;
11121;SDS011;5615;49.304;10.576;2023-02-01T00:12:13;13.73;;;8.73;;
11121;SDS011;5615;49.304;10.576;2023-02-01T00:14:41;8.83;;;7.37;;
11121;SDS011;5615;49.304;10.576;2023-02-01T00:17:07;12.80;;;9.17;;
11121;SDS011;5615;49.304;10.576;2023-02-01T00:19:34;12.20;;;9.13;;
11121;SDS011;5615;49.304;10.576;2023-02-01T00:22:01;10.60;;;8.27;;
11121;SDS011;5615;49.304;10.576;2023-02-01T00:24:28;11.23;;;9.00;;
11121;SDS011;5615;49.304;10.576;2023-02-01T00:26:54;12.53;;;9.77;;
11121;SDS011;5615;49.304;10.576;2023-02-01T00:29:21;11.50;;;7.83;;
11121;SDS011;5615;49.304;10.576;2023-02-01T00:31:50;9.40;;;7.23;;
11121;SDS011;5615;49.304;10.576;2023-02-01T00:34:17;10.77;;;7.07;;
11121;SDS011;5615;49.304;10.576;2023-02-01T00:36:45;10.80;;;7.93;;
11121;SDS011;5615;49.304;10.576;2023-02-01T00:39:12;8.90;;;7.70;;
11121;SDS011;5615;49.304;10.576;2023-02-01T00:41:38;11.73;;;7.57;;
11121;SDS011;5615;49.304;10.576;2023-02-01T00:44:06;9.63;;;7.17;;
11121;SDS011;5615;49.304;10.576;2023-02-01T00:46:33;9.43;;;6.90;;
11121;SDS011;5615;49.304;10.576;2023-02-01T00:49:01;8.53;;;6.87;;
11121;SDS011;5615;49.304;10.576;2023-02-01T00:51:28;9.83;;;6.97;;
11121;SDS011;5615;49.304;10.576;2023-02-01T00:53:55;8.70;;;7.30;;
11121;SDS011;5615;49.304;10.576;2023-02-01T00:56:22;6.83;;;6.13;;
11121;SDS011;5615;49.304;10.576;2023-02-01T00:58:49;7.30;;;6.57;;
11121;SDS011;5615;49.304;10.576;2023-02-01T01:01:17;7.73;;;6.30;;
11121;SDS011;5615;49.304;10.576;2023-02-01T01:03:47;7.83;;;6.57;;
11121;SDS011;5615;49.304;10.576;2023-02-01T01:06:18;9.73;;;7.40;;
11121;SDS011;5615;49.304;10.576;2023-02-01T01:08:46;8.97;;;7.60;;
11121;SDS011;5615;49.304;10.576;2023-02-01T01:11:14;9.20;;;7.90;;
11121;SDS011;5615;49.304;10.576;2023-02-01T01:13:42;10.07;;;7.17;;
11121;SDS011;5615;49.304;10.576;2023-02-01T01:16:11;11.03;;;6.80;;
11121;SDS011;5615;49.304;10.576;2023-02-01T01:18:38;8.90;;;7.33;;
11121;SDS011;5615;49.304;10.576;2023-02-01T01:21:05;8.90;;;7.73;;
11121;SDS011;5615;49.304;10.576;2023-02-01T01:23:34;11.90;;;8.50;;
11121;SDS011;5615;49.304;10.576;2023-02-01T01:26:04;10.37;;;7.07;;
11121;SDS011;5615;49.304;10.576;2023-02-01T01:28:31;8.60;;;7.13;;
11121;SDS011;5615;49.304;10.576;2023-02-01T01:30:58;9.83;;;7.37;;
11121;SDS011;5615;49.304;10.576;2023-02-01T01:33:24;9.37;;;7.60;;
11121;SDS011;5615;49.304;10.576;2023-02-01T01:35:51;9.53;;;7.47;;
11121;SDS011;5615;49.304;10.576;2023-02-01T01:38:18;10.13;;;8.50;;
11121;SDS011;5615;49.304;10.576;2023-02-01T01:40:46;10.17;;;8.27;;
11121;SDS011;5615;49.304;10.576;2023-02-01T01:43:15;8.13;;;7.07;;
11121;SDS011;5615;49.304;10.576;2023-02-01T01:45:44;9.87;;;8.17;;
11121;SDS011;5615;49.304;10.576;2023-02-01T01:48:13;11.13;;;8.23;;
11121;SDS011;5615;49.304;10.576;2023-02-01T01:50:42;10.30;;;8.27;;
11121;SDS011;5615;49.304;10.576;2023-02-01T01:53:17;11.37;;;8.67;;
11121;SDS011;5615;49.304;10.576;2023-02-01T01:55:48;11.00;;;8.63;;
11121;SDS011;5615;49.304;10.576;2023-02-01T01:58:17;10.50;;;8.63;;
11121;SDS011;5615;49.304;10.576;2023-02-01T02:00:45;8.77;;;7.60;;
11121;SDS011;5615;49.304;10.576;2023-02-01T02:03:14;11.07;;;8.60;;
11121;SDS011;5615;49.304;10.576;2023-02-01T02:05:43;12.73;;;8.33;;
11121;SDS011;5615;49.304;10.576;2023-02-01T02:08:11;9.60;;;8.30;;
11121;SDS011;5615;49.304;10.576;2023-02-01T02:10:38;10.77;;;8.73;;
11121;SDS011;5615;49.304;10.576;2023-02-01T02:13:23;10.83;;;9.43;;
11121;SDS011;5615;49.304;10.576;2023-02-01T02:15:53;10.97;;;8.53;;
11121;SDS011;5615;49.304;10.576;2023-02-01T02:18:34;10.93;;;8.57;;
11121;SDS011;5615;49.304;10.576;2023-02-01T02:21:12;11.47;;;8.43;;
11121;SDS011;5615;49.304;10.576;2023-02-01T02:26:51;11.83;;;8.20;;
11121;SDS011;5615;49.304;10.576;2023-02-01T02:29:46;9.07;;;7.50;;
11121;SDS011;5615;49.304;10.576;2023-02-01T02:32:40;12.10;;;8.90;;
11121;SDS011;5615;49.304;10.576;2023-02-01T02:35:27;10.00;;;7.67;;
11121;SDS011;5615;49.304;10.576;2023-02-01T02:38:02;9.80;;;8.10;;
11121;SDS011;5615;49.304;10.576;2023-02-01T02:40:36;10.50;;;7.90;;
11121;SDS011;5615;49.304;10.576;2023-02-01T02:43:09;12.03;;;8.83;;
11121;SDS011;5615;49.304;10.576;2023-02-01T02:46:00;12.97;;;8.67;;
11121;SDS011;5615;49.304;10.576;2023-02-01T02:48:58;10.57;;;8.37;;
11121;SDS011;5615;49.304;10.576;2023-02-01T02:51:34;10.40;;;8.20;;
11121;SDS011;5615;49.304;10.576;2023-02-01T02:54:25;10.23;;;8.53;;
11121;SDS011;5615;49.304;10.576;2023-02-01T02:57:18;12.93;;;9.13;;
11121;SDS011;5615;49.304;10.576;2023-02-01T03:00:05;10.10;;;8.33;;
11121;SDS011;5615;49.304;10.576;2023-02-01T03:02:52;12.60;;;9.83;;
11121;SDS011;5615;49.304;10.576;2023-02-01T03:05:40;10.80;;;8.13;;
11121;SDS011;5615;49.304;10.576;2023-02-01T03:08:13;12.27;;;8.97;;
11121;SDS011;5615;49.304;10.576;2023-02-01T03:10:44;13.60;;;9.20;;
11121;SDS011;5615;49.304;10.576;2023-02-01T03:13:22;11.63;;;8.83;;
11121;SDS011;5615;49.304;10.576;2023-02-01T03:15:55;10.10;;;8.40;;
11121;SDS011;5615;49.304;10.576;2023-02-01T03:18:26;9.57;;;7.77;;
11121;SDS011;5615;49.304;10.576;2023-02-01T03:20:58;11.00;;;9.27;;
11121;SDS011;5615;49.304;10.576;2023-02-01T03:23:30;12.93;;;7.83;;
11121;SDS011;5615;49.304;10.576;2023-02-01T03:25:59;9.37;;;8.00;;
11121;SDS011;5615;49.304;10.576;2023-02-01T03:28:27;9.00;;;7.73;;
11121;SDS011;5615;49.304;10.576;2023-02-01T03:30:59;11.33;;;9.63;;
11121;SDS011;5615;49.304;10.576;2023-02-01T03:33:27;10.27;;;8.47;;
11121;SDS011;5615;49.304;10.576;2023-02-01T03:35:57;11.97;;;9.40;;
11121;SDS011;5615;49.304;10.576;2023-02-01T03:38:31;10.30;;;9.20;;
11121;SDS011;5615;49.304;10.576;2023-02-01T03:41:02;8.67;;;7.77;;
11121;SDS011;5615;49.304;10.576;2023-02-01T03:43:35;14.30;;;9.40;;
11121;SDS011;5615;49.304;10.576;2023-02-01T03:46:09;9.77;;;7.37;;
11121;SDS011;5615;49.304;10.576;2023-02-01T03:48:40;12.20;;;8.80;;
11121;SDS011;5615;49.304;10.576;2023-02-01T03:51:07;11.77;;;8.10;;
11121;SDS011;5615;49.304;10.576;2023-02-01T03:53:36;12.53;;;8.87;;
11121;SDS011;5615;49.304;10.576;2023-02-01T03:56:06;9.63;;;7.53;;
11121;SDS011;5615;49.304;10.576;2023-02-01T03:58:34;11.70;;;9.00;;
11121;SDS011;5615;49.304;10.576;2023-02-01T04:01:00;10.90;;;8.33;;
11121;SDS011;5615;49.304;10.576;2023-02-01T04:03:27;12.63;;;9.30;;
11121;SDS011;5615;49.304;10.576;2023-02-01T04:05:54;9.90;;;8.10;;
11121;SDS011;5615;49.304;10.576;2023-02-01T04:08:21;10.73;;;8.73;;
11121;SDS011;5615;49.304;10.576;2023-02-01T04:10:50;12.83;;;8.27;;
11121;SDS011;5615;49.304;10.576;2023-02-01T04:13:17;11.13;;;7.60;;
11121;SDS011;5615;49.304;10.576;2023-02-01T04:15:43;12.40;;;8.50;;
11121;SDS011;5615;49.304;10.576;2023-02-01T04:18:11;10.17;;;7.90;;
11121;SDS011;5615;49.304;10.576;2023-02-01T04:20:38;9.33;;;8.20;;
11121;SDS011;5615;49.304;10.576;2023-02-01T04:23:04;14.30;;;7.70;;
11121;SDS011;5615;49.304;10.576;2023-02-01T04:25:31;10.67;;;7.93;;
11121;SDS011;5615;49.304;10.576;2023-02-01T04:27:59;8.73;;;7.07;;
11121;SDS011;5615;49.304;10.576;2023-02-01T04:30:25;11.00;;;7.53;;
11121;SDS011;5615;49.304;10.576;2023-02-01T04:32:52;9.03;;;6.93;;
11121;SDS011;5615;49.304;10.576;2023-02-01T04:35:19;9.60;;;6.10;;
11121;SDS011;5615;49.304;10.576;2023-02-01T04:37:45;7.40;;;5.87;;
11121;SDS011;5615;49.304;10.576;2023-02-01T04:40:12;8.80;;;7.00;;
11121;SDS011;5615;49.304;10.576;2023-02-01T04:42:39;7.63;;;5.93;;
11121;SDS011;5615;49.304;10.576;2023-02-01T04:45:07;8.77;;;6.20;;
11121;SDS011;5615;49.304;10.576;2023-02-01T04:47:34;8.47;;;6.90;;
11121;SDS011;5615;49.304;10.576;2023-02-01T04:50:01;10.37;;;6.17;;
11121;SDS011;5615;49.304;10.576;2023-02-01T04:52:28;9.77;;;6.73;;
11121;SDS011;5615;49.304;10.576;2023-02-01T04:54:54;7.30;;;6.13;;
11121;SDS011;5615;49.304;10.576;2023-02-01T04:57:22;7.50;;;5.57;;
11121;SDS011;5615;49.304;10.576;2023-02-01T04:59:49;9.80;;;6.13;;
11121;SDS011;5615;49.304;10.576;2023-02-01T05:02:17;9.20;;;6.13;;
11121;SDS011;5615;49.304;10.576;2023-02-01T05:04:43;8.73;;;6.57;;
11121;SDS011;5615;49.304;10.576;2023-02-01T05:07:10;7.73;;;5.87;;
11121;SDS011;5615;49.304;10.576;2023-02-01T05:09:36;8.10;;;6.97;;
11121;SDS011;5615;49.304;10.576;2023-02-01T05:12:03;7.27;;;5.87;;
11121;SDS011;5615;49.304;10.576;2023-02-01T05:14:59;7.77;;;5.97;;
11121;SDS011;5615;49.304;10.576;2023-02-01T05:17:27;8.60;;;5.97;;
11121;SDS011;5615;49.304;10.576;2023-02-01T05:19:54;10.00;;;6.40;;
11121;SDS011;5615;49.304;10.576;2023-02-01T05:22:20;7.03;;;5.77;;
11121;SDS011;5615;49.304;10.576;2023-02-01T05:24:47;7.27;;;5.57;;
11121;SDS011;5615;49.304;10.576;2023-02-01T05:27:13;9.20;;;6.50;;
11121;SDS011;5615;49.304;10.576;2023-02-01T05:29:40;6.80;;;5.33;;
11121;SDS011;5615;49.304;10.576;2023-02-01T05:32:08;8.53;;;6.30;;
11121;SDS011;5615;49.304;10.576;2023-02-01T05:34:36;10.13;;;6.87;;
11121;SDS011;5615;49.304;10.576;2023-02-01T05:37:03;9.53;;;6.53;;
11121;SDS011;5615;49.304;10.576;2023-02-01T05:39:30;9.33;;;7.33;;
11121;SDS011;5615;49.304;10.576;2023-02-01T05:41:56;8.50;;;6.47;;
11121;SDS011;5615;49.304;10.576;2023-02-01T05:44:23;10.67;;;7.30;;
11121;SDS011;5615;49.304;10.576;2023-02-01T05:46:49;11.17;;;7.43;;
11121;SDS011;5615;49.304;10.576;2023-02-01T05:49:17;10.60;;;7.43;;
11121;SDS011;5615;49.304;10.576;2023-02-01T05:51:45;9.60;;;7.00;;
11121;SDS011;5615;49.304;10.576;2023-02-01T05:54:11;9.80;;;7.50;;
11121;SDS011;5615;49.304;10.576;2023-02-01T05:56:38;8.47;;;6.77;;
11121;SDS011;5615;49.304;10.576;2023-02-01T05:59:05;10.03;;;6.80;;
11121;SDS011;5615;49.304;10.576;2023-02-01T06:01:32;9.60;;;7.27;;
11121;SDS011;5615;49.304;10.576;2023-02-01T06:03:59;11.87;;;7.30;;
11121;SDS011;5615;49.304;10.576;2023-02-01T06:06:25;9.37;;;7.13;;
11121;SDS011;5615;49.304;10.576;2023-02-01T06:08:53;10.57;;;7.10;;
11121;SDS011;5615;49.304;10.576;2023-02-01T06:11:20;9.80;;;7.50;;
11121;SDS011;5615;49.304;10.576;2023-02-01T06:13:47;11.30;;;7.77;;
11121;SDS011;5615;49.304;10.576;2023-02-01T06:16:13;12.53;;;8.37;;
11121;SDS011;5615;49.304;10.576;2023-02-01T06:18:40;11.53;;;8.10;;
11121;SDS011;5615;49.304;10.576;2023-02-01T06:21:07;10.43;;;8.17;;
11121;SDS011;5615;49.304;10.576;2023-02-01T06:23:34;15.10;;;10.20;;
11121;SDS011;5615;49.304;10.576;2023-02-01T06:26:03;11.03;;;8.27;;
11121;SDS011;5615;49.304;10.576;2023-02-01T06:28:31;12.07;;;9.23;;
11121;SDS011;5615;49.304;10.576;2023-02-01T06:31:02;13.53;;;9.60;;
11121;SDS011;5615;49.304;10.576;2023-02-01T06:33:31;22.37;;;14.63;;
11121;SDS011;5615;49.304;10.576;2023-02-01T06:35:58;25.23;;;14.97;;
11121;SDS011;5615;49.304;10.576;2023-02-01T06:38:25;12.93;;;10.03;;
11121;SDS011;5615;49.304;10.576;2023-02-01T06:40:52;12.57;;;9.53;;
11121;SDS011;5615;49.304;10.576;2023-02-01T06:43:21;13.43;;;9.50;;
11121;SDS011;5615;49.304;10.576;2023-02-01T06:45:48;10.17;;;7.93;;
11121;SDS011;5615;49.304;10.576;2023-02-01T06:48:14;12.60;;;8.87;;
11121;SDS011;5615;49.304;10.576;2023-02-01T06:50:41;11.33;;;8.20;;
11121;SDS011;5615;49.304;10.576;2023-02-01T06:53:08;12.03;;;8.43;;
11121;SDS011;5615;49.304;10.576;2023-02-01T06:55:34;10.37;;;8.07;;
11121;SDS011;5615;49.304;10.576;2023-02-01T06:58:01;9.40;;;8.17;;
11121;SDS011;5615;49.304;10.576;2023-02-01T07:00:29;8.83;;;7.13;;
11121;SDS011;5615;49.304;10.576;2023-02-01T07:02:57;12.13;;;8.70;;
11121;SDS011;5615;49.304;10.576;2023-02-01T07:05:24;12.03;;;7.70;;
11121;SDS011;5615;49.304;10.576;2023-02-01T07:07:51;7.73;;;6.67;;
11121;SDS011;5615;49.304;10.576;2023-02-01T07:10:18;12.33;;;6.23;;
11121;SDS011;5615;49.304;10.576;2023-02-01T07:12:44;8.33;;;6.10;;
11121;SDS011;5615;49.304;10.576;2023-02-01T07:15:11;8.20;;;6.33;;
11121;SDS011;5615;49.304;10.576;2023-02-01T07:17:39;9.17;;;6.87;;
11121;SDS011;5615;49.304;10.576;2023-02-01T07:20:06;11.77;;;6.53;;
11121;SDS011;5615;49.304;10.576;2023-02-01T07:22:34;9.67;;;6.10;;
11121;SDS011;5615;49.304;10.576;2023-02-01T07:25:00;9.07;;;6.20;;
11121;SDS011;5615;49.304;10.576;2023-02-01T07:27:28;8.77;;;6.30;;
11121;SDS011;5615;49.304;10.576;2023-02-01T07:29:54;8.97;;;5.80;;
11121;SDS011;5615;49.304;10.576;2023-02-01T07:32:21;8.20;;;6.30;;
11121;SDS011;5615;49.304;10.576;2023-02-01T07:34:49;8.33;;;4.50;;
11121;SDS011;5615;49.304;10.576;2023-02-01T07:37:16;6.77;;;5.00;;
11121;SDS011;5615;49.304;10.576;2023-02-01T07:39:43;6.63;;;4.80;;
11121;SDS011;5615;49.304;10.576;2023-02-01T07:42:09;8.43;;;5.00;;
11121;SDS011;5615;49.304;10.576;2023-02-01T07:44:36;6.00;;;5.00;;
11121;SDS011;5615;49.304;10.576;2023-02-01T07:47:03;5.30;;;4.80;;
11121;SDS011;5615;49.304;10.576;2023-02-01T07:49:29;8.67;;;5.03;;
11121;SDS011;5615;49.304;10.576;2023-02-01T07:51:57;6.60;;;5.33;;
11121;SDS011;5615;49.304;10.576;2023-02-01T07:54:24;11.83;;;5.73;;
11121;SDS011;5615;49.304;10.576;2023-02-01T07:56:51;7.50;;;5.77;;
11121;SDS011;5615;49.304;10.576;2023-02-01T07:59:17;7.80;;;5.43;;
11121;SDS011;5615;49.304;10.576;2023-02-01T08:01:44;8.90;;;5.80;;
11121;SDS011;5615;49.304;10.576;2023-02-01T08:04:10;6.80;;;5.70;;
11121;SDS011;5615;49.304;10.576;2023-02-01T08:06:38;7.00;;;6.10;;
11121;SDS011;5615;49.304;10.576;2023-02-01T08:09:06;7.23;;;5.37;;
11121;SDS011;5615;49.304;10.576;2023-02-01T08:11:35;6.93;;;5.27;;
11121;SDS011;5615;49.304;10.576;2023-02-01T08:14:02;7.40;;;5.40;;
11121;SDS011;5615;49.304;10.576;2023-02-01T08:16:29;7.37;;;5.33;;
11121;SDS011;5615;49.304;10.576;2023-02-01T08:18:56;11.27;;;6.40;;
11121;SDS011;5615;49.304;10.576;2023-02-01T08:21:23;8.07;;;5.77;;
11121;SDS011;5615;49.304;10.576;2023-02-01T08:23:51;9.03;;;6.27;;
11121;SDS011;5615;49.304;10.576;2023-02-01T08:26:20;8.07;;;6.17;;
11121;SDS011;5615;49.304;10.576;2023-02-01T08:28:50;11.07;;;7.33;;
11121;SDS011;5615;49.304;10.576;2023-02-01T08:31:19;11.30;;;6.70;;
11121;SDS011;5615;49.304;10.576;2023-02-01T08:33:48;11.47;;;7.53;;
11121;SDS011;5615;49.304;10.576;2023-02-01T08:36:16;13.70;;;8.13;;
11121;SDS011;5615;49.304;10.576;2023-02-01T08:38:43;10.40;;;8.17;;
11121;SDS011;5615;49.304;10.576;2023-02-01T08:41:10;12.87;;;8.60;;
11121;SDS011;5615;49.304;10.576;2023-02-01T08:43:40;12.67;;;8.33;;
11121;SDS011;5615;49.304;10.576;2023-02-01T08:46:08;14.43;;;9.83;;
11121;SDS011;5615;49.304;10.576;2023-02-01T08:48:36;13.10;;;9.13;;
11121;SDS011;5615;49.304;10.576;2023-02-01T08:51:03;14.33;;;8.70;;
11121;SDS011;5615;49.304;10.576;2023-02-01T08:53:31;12.40;;;6.97;;
11121;SDS011;5615;49.304;10.576;2023-02-01T08:55:58;17.70;;;8.70;;
11121;SDS011;5615;49.304;10.576;2023-02-01T08:58:25;14.30;;;7.70;;
11121;SDS011;5615;49.304;10.576;2023-02-01T09:00:53;12.90;;;7.33;;
11121;SDS011;5615;49.304;10.576;2023-02-01T09:03:20;16.13;;;7.60;;
11121;SDS011;5615;49.304;10.576;2023-02-01T09:05:47;13.53;;;7.67;;
11121;SDS011;5615;49.304;10.576;2023-02-01T09:08:13;16.27;;;6.07;;
11121;SDS011;5615;49.304;10.576;2023-02-01T09:10:40;11.53;;;6.43;;
11121;SDS011;5615;49.304;10.576;2023-02-01T09:13:07;12.57;;;5.80;;
11121;SDS011;5615;49.304;10.576;2023-02-01T09:15:34;11.70;;;5.50;;
11121;SDS011;5615;49.304;10.576;2023-02-01T09:18:02;8.27;;;5.57;;
11121;SDS011;5615;49.304;10.576;2023-02-01T09:20:29;8.67;;;4.97;;
11121;SDS011;5615;49.304;10.576;2023-02-01T09:22:55;6.60;;;5.13;;
11121;SDS011;5615;49.304;10.576;2023-02-01T09:25:23;13.17;;;5.83;;
11121;SDS011;5615;49.304;10.576;2023-02-01T09:27:50;7.83;;;4.93;;
11121;SDS011;5615;49.304;10.576;2023-02-01T09:30:16;6.60;;;4.40;;
11121;SDS011;5615;49.304;10.576;2023-02-01T09:32:43;8.40;;;4.60;;
11121;SDS011;5615;49.304;10.576;2023-02-01T09:35:11;10.23;;;4.57;;
11121;SDS011;5615;49.304;10.576;2023-02-01T09:37:38;12.87;;;5.90;;
11121;SDS011;5615;49.304;10.576;2023-02-01T09:40:05;8.60;;;4.60;;
11121;SDS011;5615;49.304;10.576;2023-02-01T09:42:45;9.10;;;4.63;;
11121;SDS011;5615;49.304;10.576;2023-02-01T09:45:27;10.73;;;4.60;;
11121;SDS011;5615;49.304;10.576;2023-02-01T09:48:02;11.60;;;4.70;;
11121;SDS011;5615;49.304;10.576;2023-02-01T09:50:47;9.20;;;4.50;;
11121;SDS011;5615;49.304;10.576;2023-02-01T09:53:18;8.17;;;4.40;;
11121;SDS011;5615;49.304;10.576;2023-02-01T09:55:50;8.73;;;4.63;;
11121;SDS011;5615;49.304;10.576;2023-02-01T09:58:22;8.93;;;5.10;;
11121;SDS011;5615;49.304;10.576;2023-02-01T10:00:56;9.20;;;4.70;;
11121;SDS011;5615;49.304;10.576;2023-02-01T10:03:25;8.87;;;4.77;;
11121;SDS011;5615;49.304;10.576;2023-02-01T10:06:00;12.00;;;5.30;;
11121;SDS011;5615;49.304;10.576;2023-02-01T10:08:38;7.53;;;4.37;;
11121;SDS011;5615;49.304;10.576;2023-02-01T10:11:20;9.50;;;4.63;;
11121;SDS011;5615;49.304;10.576;2023-02-01T10:13:54;6.67;;;4.37;;
11121;SDS011;5615;49.304;10.576;2023-02-01T10:16:31;12.57;;;4.73;;
11121;SDS011;5615;49.304;10.576;2023-02-01T10:22:03;9.60;;;4.80;;
11121;SDS011;5615;49.304;10.576;2023-02-01T10:24:37;10.70;;;5.20;;
11121;SDS011;5615;49.304;10.576;2023-02-01T10:27:10;9.03;;;3.97;;
11121;SDS011;5615;49.304;10.576;2023-02-01T10:29:44;6.33;;;3.93;;
11121;SDS011;5615;49.304;10.576;2023-02-01T10:32:15;8.63;;;4.20;;
11121;SDS011;5615;49.304;10.576;2023-02-01T10:34:44;7.67;;;4.20;;
11121;SDS011;5615;49.304;10.576;2023-02-01T10:37:17;7.93;;;4.67;;
11121;SDS011;5615;49.304;10.576;2023-02-01T10:39:52;9.17;;;4.30;;
11121;SDS011;5615;49.304;10.576;2023-02-01T10:42:21;7.80;;;3.80;;
11121;SDS011;5615;49.304;10.576;2023-02-01T10:44:51;9.97;;;4.13;;
11121;SDS011;5615;49.304;10.576;2023-02-01T10:47:20;7.63;;;4.03;;
11121;SDS011;5615;49.304;10.576;2023-02-01T10:49:49;7.50;;;3.83;;
11121;SDS011;5615;49.304;10.576;2023-02-01T10:52:24;9.13;;;3.50;;
11121;SDS011;5615;49.304;10.576;2023-02-01T10:58:14;5.13;;;3.60;;
11121;SDS011;5615;49.304;10.576;2023-02-01T11:00:43;6.73;;;3.97;;
11121;SDS011;5615;49.304;10.576;2023-02-01T11:06:09;8.70;;;4.47;;
11121;SDS011;5615;49.304;10.576;2023-02-01T11:08:44;7.93;;;4.30;;
11121;SDS011;5615;49.304;10.576;2023-02-01T11:11:11;8.13;;;4.40;;
11121;SDS011;5615;49.304;10.576;2023-02-01T11:13:39;9.00;;;4.70;;
11121;SDS011;5615;49.304;10.576;2023-02-01T11:16:08;7.23;;;4.03;;
11121;SDS011;5615;49.304;10.576;2023-02-01T11:18:39;9.73;;;4.70;;
11121;SDS011;5615;49.304;10.576;2023-02-01T11:21:06;7.43;;;3.97;;
11121;SDS011;5615;49.304;10.576;2023-02-01T11:23:39;8.20;;;4.27;;
11121;SDS011;5615;49.304;10.576;2023-02-01T11:26:11;6.33;;;4.17;;
11121;SDS011;5615;49.304;10.576;2023-02-01T11:28:50;10.23;;;4.73;;
11121;SDS011;5615;49.304;10.576;2023-02-01T11:31:19;7.90;;;4.83;;
11121;SDS011;5615;49.304;10.576;2023-02-01T11:33:47;6.33;;;3.40;;
11121;SDS011;5615;49.304;10.576;2023-02-01T11:36:17;7.67;;;3.17;;
11121;SDS011;5615;49.304;10.576;2023-02-01T11:38:52;7.60;;;3.67;;
11121;SDS011;5615;49.304;10.576;2023-02-01T11:41:34;7.43;;;2.97;;
11121;SDS011;5615;49.304;10.576;2023-02-01T11:44:15;4.47;;;2.30;;
11121;SDS011;5615;49.304;10.576;2023-02-01T11:46:46;6.60;;;2.10;;
11121;SDS011;5615;49.304;10.576;2023-02-01T11:49:15;5.57;;;2.30;;
11121;SDS011;5615;49.304;10.576;2023-02-01T11:51:50;9.33;;;2.70;;
11121;SDS011;5615;49.304;10.576;2023-02-01T11:54:33;5.57;;;3.00;;
11121;SDS011;5615;49.304;10.576;2023-02-01T11:57:20;5.03;;;2.83;;
11121;SDS011;5615;49.304;10.576;2023-02-01T12:00:02;7.77;;;3.37;;
11121;SDS011;5615;49.304;10.576;2023-02-01T12:02:44;7.73;;;3.70;;
11121;SDS011;5615;49.304;10.576;2023-02-01T12:05:37;10.83;;;4.20;;
11121;SDS011;5615;49.304;10.576;2023-02-01T12:11:16;7.70;;;4.20;;
11121;SDS011;5615;49.304;10.576;2023-02-01T12:13:55;9.43;;;4.23;;
11121;SDS011;5615;49.304;10.576;2023-02-01T12:16:28;11.80;;;3.80;;
11121;SDS011;5615;49.304;10.576;2023-02-01T12:19:04;9.80;;;4.10;;
11121;SDS011;5615;49.304;10.576;2023-02-01T12:21:59;8.67;;;4.33;;
11121;SDS011;5615;49.304;10.576;2023-02-01T12:24:42;8.60;;;4.20;;
11121;SDS011;5615;49.304;10.576;2023-02-01T12:27:42;13.70;;;5.00;;
11121;SDS011;5615;49.304;10.576;2023-02-01T12:33:23;11.40;;;4.83;;
11121;SDS011;5615;49.304;10.576;2023-02-01T12:36:01;17.00;;;4.77;;
11121;SDS011;5615;49.304;10.576;2023-02-01T12:38:39;11.03;;;5.03;;
11121;SDS011;5615;49.304;10.576;2023-02-01T12:41:17;12.37;;;4.77;;
11121;SDS011;5615;49.304;10.576;2023-02-01T12:43:54;21.67;;;4.30;;
11121;SDS011;5615;49.304;10.576;2023-02-01T12:46:26;13.27;;;4.60;;
11121;SDS011;5615;49.304;10.576;2023-02-01T12:48:58;13.23;;;4.80;;
11121;SDS011;5615;49.304;10.576;2023-02-01T12:51:28;12.27;;;4.40;;
11121;SDS011;5615;49.304;10.576;2023-02-01T12:54:00;13.07;;;4.17;;
11121;SDS011;5615;49.304;10.576;2023-02-01T12:56:30;7.97;;;4.03;;
11121;SDS011;5615;49.304;10.576;2023-02-01T12:59:03;14.07;;;4.97;;
11121;SDS011;5615;49.304;10.576;2023-02-01T13:01:37;10.40;;;4.20;;
11121;SDS011;5615;49.304;10.576;2023-02-01T13:04:10;19.27;;;4.97;;
11121;SDS011;5615;49.304;10.576;2023-02-01T13:06:43;14.43;;;5.00;;
11121;SDS011;5615;49.304;10.576;2023-02-01T13:09:15;10.27;;;5.03;;
11121;SDS011;5615;49.304;10.576;2023-02-01T13:11:46;14.67;;;5.07;;
11121;SDS011;5615;49.304;10.576;2023-02-01T13:14:17;13.10;;;5.20;;
11121;SDS011;5615;49.304;10.576;2023-02-01T13:16:53;11.83;;;5.17;;
11121;SDS011;5615;49.304;10.576;2023-02-01T13:19:26;11.50;;;5.47;;
11121;SDS011;5615;49.304;10.576;2023-02-01T13:21:56;12.13;;;5.40;;
11121;SDS011;5615;49.304;10.576;2023-02-01T13:24:29;12.87;;;5.57;;
11121;SDS011;5615;49.304;10.576;2023-02-01T13:26:59;15.70;;;5.60;;
11121;SDS011;5615;49.304;10.576;2023-02-01T13:29:27;15.30;;;5.50;;
11121;SDS011;5615;49.304;10.576;2023-02-01T13:34:53;13.63;;;5.93;;
11121;SDS011;5615;49.304;10.576;2023-02-01T13:37:40;16.27;;;5.00;;
11121;SDS011;5615;49.304;10.576;2023-02-01T13:40:36;14.53;;;4.80;;
11121;SDS011;5615;49.304;10.576;2023-02-01T13:43:05;17.80;;;5.37;;
11121;SDS011;5615;49.304;10.576;2023-02-01T13:45:41;11.43;;;4.93;;
11121;SDS011;5615;49.304;10.576;2023-02-01T13:48:17;14.80;;;4.70;;
11121;SDS011;5615;49.304;10.576;2023-02-01T13:50:49;14.73;;;4.80;;
11121;SDS011;5615;49.304;10.576;2023-02-01T13:53:19;12.13;;;4.77;;
11121;SDS011;5615;49.304;10.576;2023-02-01T13:55:54;14.83;;;4.67;;
11121;SDS011;5615;49.304;10.576;2023-02-01T13:58:28;9.73;;;4.50;;
11121;SDS011;5615;49.304;10.576;2023-02-01T14:04:44;16.30;;;5.00;;
11121;SDS011;5615;49.304;10.576;2023-02-01T14:07:17;11.10;;;5.30;;
11121;SDS011;5615;49.304;10.576;2023-02-01T14:09:45;14.80;;;6.20;;
11121;SDS011;5615;49.304;10.576;2023-02-01T14:17:57;12.40;;;5.27;;
11121;SDS011;5615;49.304;10.576;2023-02-01T14:23:21;11.77;;;4.63;;
11121;SDS011;5615;49.304;10.576;2023-02-01T14:26:06;13.90;;;4.30;;
11121;SDS011;5615;49.304;10.576;2023-02-01T14:28:40;8.93;;;4.13;;
11121;SDS011;5615;49.304;10.576;2023-02-01T14:31:14;9.30;;;4.17;;
11121;SDS011;5615;49.304;10.576;2023-02-01T14:34:00;9.37;;;3.83;;
11121;SDS011;5615;49.304;10.576;2023-02-01T14:36:40;11.40;;;5.50;;
11121;SDS011;5615;49.304;10.576;2023-02-01T14:42:05;13.03;;;5.93;;
11121;SDS011;5615;49.304;10.576;2023-02-01T14:44:45;14.87;;;5.40;;
11121;SDS011;5615;49.304;10.576;2023-02-01T14:52:47;9.20;;;3.60;;
11121;SDS011;5615;49.304;10.576;2023-02-01T14:55:17;11.17;;;3.93;;
11121;SDS011;5615;49.304;10.576;2023-02-01T14:57:50;11.50;;;4.50;;
11121;SDS011;5615;49.304;10.576;2023-02-01T15:00:22;11.77;;;4.50;;
11121;SDS011;5615;49.304;10.576;2023-02-01T15:02:51;7.97;;;2.87;;
11121;SDS011;5615;49.304;10.576;2023-02-01T15:05:23;11.43;;;4.17;;
11121;SDS011;5615;49.304;10.576;2023-02-01T15:07:56;12.10;;;4.77;;
11121;SDS011;5615;49.304;10.576;2023-02-01T15:10:26;11.97;;;3.87;;
11121;SDS011;5615;49.304;10.576;2023-02-01T15:12:55;13.63;;;4.20;;
11121;SDS011;5615;49.304;10.576;2023-02-01T15:15:23;14.03;;;4.27;;
11121;SDS011;5615;49.304;10.576;2023-02-01T15:17:51;13.77;;;4.50;;
11121;SDS011;5615;49.304;10.576;2023-02-01T15:20:20;10.07;;;3.90;;
11121;SDS011;5615;49.304;10.576;2023-02-01T15:22:52;8.60;;;3.67;;
11121;SDS011;5615;49.304;10.576;2023-02-01T15:25:22;12.23;;;3.67;;
11121;SDS011;5615;49.304;10.576;2023-02-01T15:27:50;11.37;;;4.20;;
11121;SDS011;5615;49.304;10.576;2023-02-01T15:30:18;10.60;;;3.63;;
11121;SDS011;5615;49.304;10.576;2023-02-01T15:32:47;10.43;;;3.03;;
11121;SDS011;5615;49.304;10.576;2023-02-01T15:35:33;9.87;;;3.40;;
11121;SDS011;5615;49.304;10.576;2023-02-01T15:38:20;8.83;;;3.80;;
11121;SDS011;5615;49.304;10.576;2023-02-01T15:40:58;9.23;;;3.30;;
11121;SDS011;5615;49.304;10.576;2023-02-01T15:43:27;15.03;;;4.27;;